Time;durP1;ratioP1;P1;durP2;ratioP2;P2;SDS_P1;SDS_P2;PMS_P1;PMS_P2;Temp;Humidity;BMP_temperature;BMP_pressure;BME280_temperature;BME280_humidity;BME280_pressure;Samples;Min_cycle;Max_cycle;Signal;HPM_P1;HPM_P2
2023/12/26 00:01:54;;;;;;;2.95;1.60;;;;;;;9.98;100.00;100551.06;5038661;28;20060;-58
2023/12/26 00:04:22;;;;;;;1.60;1.50;;;;;;;9.98;100.00;100561.69;5034626;28;20404;-57
2023/12/26 00:06:48;;;;;;;1.55;1.45;;;;;;;9.95;100.00;100564.56;5034380;28;20029;-57
2023/12/26 00:09:13;;;;;;;1.77;1.67;;;;;;;9.94;100.00;100554.91;5032519;28;20386;-56
2023/12/26 00:11:46;;;;;;;1.65;1.23;;;;;;;9.97;100.00;100567.94;5033844;28;20032;-56
2023/12/26 00:14:12;;;;;;;2.05;1.85;;;;;;;9.93;100.00;100564.69;5034321;28;20042;-57
2023/12/26 00:16:40;;;;;;;4.90;1.75;;;;;;;9.90;100.00;100559.63;5039132;28;20497;-57
2023/12/26 00:19:05;;;;;;;1.63;1.50;;;;;;;9.92;100.00;100559.50;5036700;28;20459;-57
2023/12/26 00:21:30;;;;;;;3.90;1.80;;;;;;;9.90;100.00;100553.47;5036512;28;20044;-57
2023/12/26 00:23:56;;;;;;;3.38;1.60;;;;;;;9.90;100.00;100556.13;5033916;28;20364;-58
2023/12/26 00:26:21;;;;;;;4.15;1.67;;;;;;;9.87;100.00;100553.72;5037626;28;20466;-57
2023/12/26 00:28:46;;;;;;;1.50;1.40;;;;;;;9.83;100.00;100553.09;5033457;28;20034;-57
2023/12/26 00:31:12;;;;;;;3.08;1.42;;;;;;;9.82;100.00;100552.28;5040507;28;20017;-58
2023/12/26 00:33:37;;;;;;;2.88;1.40;;;;;;;9.82;100.00;100556.72;5038941;28;20053;-57
2023/12/26 00:36:03;;;;;;;1.42;1.25;;;;;;;9.80;100.00;100550.69;5037465;28;20026;-57
2023/12/26 00:38:29;;;;;;;5.25;1.80;;;;;;;9.77;100.00;100565.03;5039493;28;20386;-56
2023/12/26 00:40:54;;;;;;;3.97;1.52;;;;;;;9.79;100.00;100559.59;5039808;28;20036;-57
2023/12/26 00:43:19;;;;;;;1.80;1.35;;;;;;;9.76;100.00;100566.00;5034643;28;20029;-56
2023/12/26 00:45:44;;;;;;;4.70;1.60;;;;;;;9.75;100.00;100558.16;5043611;28;20087;-57
2023/12/26 00:48:10;;;;;;;2.95;1.35;;;;;;;9.75;100.00;100572.25;5037523;28;20034;-58
2023/12/26 00:50:41;;;;;;;1.50;1.10;;;;;;;9.75;100.00;100563.47;5037913;28;20120;-57
2023/12/26 00:53:08;;;;;;;3.00;1.30;;;;;;;9.75;100.00;100568.78;5036806;28;20037;-55
2023/12/26 00:55:34;;;;;;;2.80;1.33;;;;;;;9.72;100.00;100575.16;5038331;28;20110;-56
2023/12/26 00:57:59;;;;;;;2.15;1.13;;;;;;;9.71;100.00;100578.78;5036456;28;20117;-55
2023/12/26 01:00:25;;;;;;;2.42;1.48;;;;;;;9.72;100.00;100587.56;5040202;28;20028;-58
2023/12/26 01:02:51;;;;;;;3.17;1.15;;;;;;;9.71;100.00;100578.78;5036679;28;20037;-58
2023/12/26 01:05:16;;;;;;;3.85;1.67;;;;;;;9.71;100.00;100588.53;5036192;28;20079;-55
2023/12/26 01:07:41;;;;;;;1.50;1.00;;;;;;;9.70;100.00;100582.38;5016476;28;20522;-58
2023/12/26 01:10:07;;;;;;;2.05;0.80;;;;;;;9.71;100.00;100586.75;5044595;28;20112;-58
2023/12/26 01:12:32;;;;;;;3.97;1.30;;;;;;;9.71;100.00;100592.03;5041084;28;20600;-56
2023/12/26 01:14:58;;;;;;;3.03;1.02;;;;;;;9.72;100.00;100590.22;5040586;28;20536;-58
2023/12/26 01:17:23;;;;;;;1.23;1.13;;;;;;;9.71;100.00;100594.69;5036220;28;20096;-58
2023/12/26 01:19:48;;;;;;;1.85;1.08;;;;;;;9.72;100.00;100591.06;5040319;28;20116;-56
2023/12/26 01:22:14;;;;;;;1.75;1.25;;;;;;;9.73;100.00;100584.81;5033910;28;20053;-54
2023/12/26 01:24:39;;;;;;;1.85;1.10;;;;;;;9.73;100.00;100595.41;5040510;28;20032;-57
2023/12/26 01:27:04;;;;;;;2.60;1.50;;;;;;;9.72;100.00;100608.78;5036884;28;20021;-56
2023/12/26 01:29:29;;;;;;;3.08;1.65;;;;;;;9.71;100.00;100594.69;5038438;28;20040;-57
2023/12/26 01:31:55;;;;;;;2.85;1.70;;;;;;;9.72;100.00;100598.19;5037646;28;20029;-57
2023/12/26 01:34:20;;;;;;;1.77;1.67;;;;;;;9.70;100.00;100605.41;5036725;28;20534;-58
2023/12/26 01:36:46;;;;;;;4.43;1.83;;;;;;;9.68;100.00;100607.34;5038884;28;20493;-58
2023/12/26 01:39:13;;;;;;;1.83;1.70;;;;;;;9.69;100.00;100609.03;5039281;28;20029;-58
2023/12/26 01:41:38;;;;;;;2.58;1.80;;;;;;;9.67;100.00;100606.47;5033734;28;20028;-58
2023/12/26 01:44:03;;;;;;;3.13;1.67;;;;;;;9.71;100.00;100604.44;5038805;28;20466;-57
2023/12/26 01:46:29;;;;;;;1.90;1.80;;;;;;;9.67;100.00;100609.13;5038640;28;20053;-58
2023/12/26 01:48:55;;;;;;;2.55;2.08;;;;;;;9.68;100.00;100607.34;5040197;28;20025;-58
2023/12/26 01:51:24;;;;;;;2.10;2.00;;;;;;;9.67;100.00;100613.59;5037645;28;20032;-57
2023/12/26 01:53:50;;;;;;;2.97;2.67;;;;;;;9.67;100.00;100611.78;5036910;28;20028;-57
2023/12/26 01:56:15;;;;;;;2.78;2.45;;;;;;;9.67;100.00;100616.25;5034494;28;20030;-57
2023/12/26 01:58:43;;;;;;;2.55;2.30;;;;;;;9.67;100.00;100622.41;5037937;28;20068;-58
2023/12/26 02:01:09;;;;;;;2.33;2.13;;;;;;;9.68;100.00;100633.88;5033371;28;20037;-58
2023/12/26 02:03:35;;;;;;;2.85;1.90;;;;;;;9.68;100.00;100629.41;5040086;28;20426;-58
2023/12/26 02:06:00;;;;;;;2.03;1.75;;;;;;;9.69;100.00;100632.88;5035729;28;20024;-56
2023/12/26 02:08:27;;;;;;;1.90;1.80;;;;;;;9.69;100.00;100632.88;5037394;28;20029;-58
2023/12/26 02:10:52;;;;;;;3.72;1.70;;;;;;;9.68;100.00;100633.88;5041104;28;20423;-58
2023/12/26 02:13:18;;;;;;;2.15;1.33;;;;;;;9.69;100.00;100632.88;5034920;28;20120;-58
2023/12/26 02:15:47;;;;;;;2.50;1.42;;;;;;;9.66;100.00;100639.28;5037020;28;20441;-57
2023/12/26 02:18:12;;;;;;;1.65;1.35;;;;;;;9.68;100.00;100644.47;5037030;28;20033;-56
2023/12/26 02:20:38;;;;;;;1.50;1.40;;;;;;;9.69;100.00;100640.84;5034710;28;20103;-57
2023/12/26 02:23:03;;;;;;;2.55;1.30;;;;;;;9.69;100.00;100647.03;5036046;28;20368;-55
2023/12/26 02:25:28;;;;;;;2.20;1.40;;;;;;;9.71;100.00;100646.88;5035308;28;20391;-56
2023/12/26 02:27:54;;;;;;;1.50;1.40;;;;;;;9.70;100.00;100653.16;5039017;28;20373;-57
2023/12/26 02:30:22;;;;;;;1.63;1.52;;;;;;;9.68;100.00;100658.56;5035108;28;20049;-57
2023/12/26 02:32:49;;;;;;;1.85;1.60;;;;;;;9.70;100.00;100650.50;5037272;28;20028;-56
2023/12/26 02:35:16;;;;;;;2.28;1.50;;;;;;;9.72;100.00;100649.41;5031959;28;20455;-56
2023/12/26 02:37:41;;;;;;;3.00;1.30;;;;;;;9.72;100.00;100657.38;5033942;28;20034;-58
2023/12/26 02:40:07;;;;;;;2.90;1.50;;;;;;;9.73;100.00;100656.41;5034090;28;20025;-56
2023/12/26 02:42:33;;;;;;;1.55;1.45;;;;;;;9.74;100.00;100646.66;5035974;28;20029;-57
2023/12/26 02:44:58;;;;;;;1.40;1.40;;;;;;;9.75;100.00;100646.53;5039554;28;20025;-58
2023/12/26 02:47:25;;;;;;;1.60;1.50;;;;;;;9.78;100.00;100656.06;5036248;28;20033;-57
2023/12/26 02:49:51;;;;;;;2.15;1.90;;;;;;;9.76;100.00;100640.28;5023002;28;20033;-56
2023/12/26 02:52:17;;;;;;;2.60;1.80;;;;;;;9.77;100.00;100649.06;5040625;28;20378;-58
2023/12/26 02:54:42;;;;;;;1.70;1.60;;;;;;;9.77;100.00;100643.75;5040589;28;20021;-58
2023/12/26 02:57:08;;;;;;;1.90;1.80;;;;;;;9.79;100.00;100644.47;5037003;28;20036;-57
2023/12/26 02:59:33;;;;;;;1.88;1.77;;;;;;;9.79;100.00;100655.09;5038083;28;20045;-56
2023/12/26 03:01:58;;;;;;;2.38;1.80;;;;;;;9.79;100.00;100645.34;5034875;28;20440;-54
2023/12/26 03:04:24;;;;;;;2.08;1.92;;;;;;;9.81;100.00;100661.16;5037542;28;20497;-57
2023/12/26 03:06:49;;;;;;;2.40;2.30;;;;;;;9.80;100.00;100660.28;5032747;28;20033;-57
2023/12/26 03:09:15;;;;;;;2.20;2.10;;;;;;;9.82;100.00;100684.91;5039408;28;20092;-56
2023/12/26 03:11:40;;;;;;;2.92;2.50;;;;;;;9.86;100.00;100674.03;5042910;28;20025;-56
2023/12/26 03:14:06;;;;;;;5.15;3.03;;;;;;;9.84;100.00;100695.38;5037588;28;20049;-59
2023/12/26 03:16:31;;;;;;;3.70;2.67;;;;;;;9.82;100.00;100695.50;5038710;28;20370;-57
2023/12/26 03:18:56;;;;;;;3.97;2.72;;;;;;;9.81;100.00;100682.38;5035524;28;20056;-56
2023/12/26 03:21:22;;;;;;;6.05;2.72;;;;;;;9.82;100.00;100689.34;5038103;28;20029;-58
2023/12/26 03:23:50;;;;;;;3.72;2.83;;;;;;;9.79;100.00;100697.53;5038185;28;20490;-57
2023/12/26 03:26:16;;;;;;;4.68;3.20;;;;;;;9.79;100.00;100702.84;5038135;28;20037;-57
2023/12/26 03:28:41;;;;;;;4.82;2.92;;;;;;;9.78;100.00;100714.44;5035747;28;20025;-57
2023/12/26 03:31:09;;;;;;;5.82;3.22;;;;;;;9.77;100.00;100708.25;5033269;28;20536;-57
2023/12/26 03:33:35;;;;;;;3.70;3.25;;;;;;;9.76;100.00;100709.22;5032397;28;20456;-55
2023/12/26 03:36:02;;;;;;;4.72;3.20;;;;;;;9.77;100.00;100707.41;5041577;28;20025;-55
2023/12/26 03:38:27;;;;;;;5.68;3.08;;;;;;;9.76;100.00;100701.28;5033071;28;20041;-55
2023/12/26 03:40:53;;;;;;;4.32;3.05;;;;;;;9.75;100.00;100710.19;5039762;28;20083;-57
2023/12/26 03:43:18;;;;;;;6.22;2.88;;;;;;;9.74;100.00;100703.22;5035080;28;20025;-56
2023/12/26 03:45:45;;;;;;;4.75;3.33;;;;;;;9.72;100.00;100707.75;5035735;28;20348;-56
2023/12/26 03:48:10;;;;;;;4.10;2.58;;;;;;;9.73;100.00;100713.94;5034786;28;20105;-57
2023/12/26 03:50:36;;;;;;;3.92;2.55;;;;;;;9.74;100.00;100705.84;5042300;28;20742;-56
2023/12/26 03:53:01;;;;;;;4.28;2.58;;;;;;;9.74;100.00;100712.94;5037418;28;20036;-54
2023/12/26 03:55:26;;;;;;;4.68;2.60;;;;;;;9.73;100.00;100712.09;5037005;28;20504;-57
2023/12/26 03:57:52;;;;;;;2.80;2.50;;;;;;;9.74;100.00;100729.72;5035060;28;20419;-54
2023/12/26 04:00:18;;;;;;;3.20;2.33;;;;;;;9.74;100.00;100726.22;5036744;28;20496;-57
2023/12/26 04:02:43;;;;;;;4.25;2.58;;;;;;;9.75;100.00;100738.53;5037313;28;20057;-57
2023/12/26 04:05:09;;;;;;;7.00;2.50;;;;;;;9.74;100.00;100731.50;5036625;28;20060;-57
2023/12/26 04:07:35;;;;;;;6.40;2.50;;;;;;;9.74;100.00;100735.03;5040004;28;20072;-57
2023/12/26 04:10:00;;;;;;;6.25;2.30;;;;;;;9.72;100.00;100752.84;5041549;28;20421;-56
2023/12/26 04:12:26;;;;;;;3.97;2.20;;;;;;;9.73;100.00;100761.66;5038666;28;20025;-56
2023/12/26 04:14:51;;;;;;;4.43;2.22;;;;;;;9.73;100.00;100770.47;5041620;28;20124;-57
2023/12/26 04:17:16;;;;;;;5.53;2.30;;;;;;;9.72;100.00;100766.09;5039321;28;20045;-55
2023/12/26 04:19:42;;;;;;;7.80;2.25;;;;;;;9.72;100.00;100758.16;5025122;28;20124;-58
2023/12/26 04:22:09;;;;;;;7.25;2.00;;;;;;;9.73;100.00;100773.13;5036914;28;20363;-56
2023/12/26 04:24:34;;;;;;;7.32;2.50;;;;;;;9.73;100.00;100766.97;5036254;28;20087;-58
2023/12/26 04:27:00;;;;;;;6.25;2.05;;;;;;;9.72;100.00;100771.41;5039965;28;20067;-56
2023/12/26 04:29:25;;;;;;;4.70;2.10;;;;;;;9.71;100.00;100775.03;5039402;28;20036;-57
2023/12/26 04:31:50;;;;;;;8.70;2.28;;;;;;;9.71;100.00;100761.78;5039977;28;20021;-57
2023/12/26 04:34:16;;;;;;;8.18;1.98;;;;;;;9.68;100.00;100777.91;5043754;28;20601;-57
2023/12/26 04:36:41;;;;;;;7.30;2.47;;;;;;;9.67;100.00;100778.84;5037586;28;20032;-57
2023/12/26 04:39:06;;;;;;;9.43;2.15;;;;;;;9.67;100.00;100768.25;5040285;28;20021;-58
2023/12/26 04:41:32;;;;;;;7.38;1.80;;;;;;;9.66;100.00;100771.88;5037510;28;20039;-57
2023/12/26 04:43:57;;;;;;;7.05;2.40;;;;;;;9.66;100.00;100794.88;5041971;28;20068;-58
2023/12/26 04:46:23;;;;;;;10.00;2.50;;;;;;;9.61;100.00;100798.72;5037971;28;20057;-57
2023/12/26 04:48:48;;;;;;;7.40;2.20;;;;;;;9.61;100.00;100809.34;5039198;28;20021;-58
2023/12/26 04:51:15;;;;;;;6.70;1.98;;;;;;;9.57;100.00;100812.31;5034951;28;20084;-58
2023/12/26 04:53:41;;;;;;;9.93;2.30;;;;;;;9.54;100.00;100810.75;5041067;28;20115;-57
2023/12/26 04:56:07;;;;;;;9.13;1.90;;;;;;;9.52;100.00;100810.00;5036787;28;20113;-58
2023/12/26 04:58:32;;;;;;;6.68;2.00;;;;;;;9.50;100.00;100808.44;5036583;28;20032;-57
2023/12/26 05:00:58;;;;;;;8.30;2.45;;;;;;;9.44;100.00;100821.19;5037797;28;20029;-57
2023/12/26 05:03:24;;;;;;;9.45;2.22;;;;;;;9.41;100.00;100832.00;5040523;28;20043;-57
2023/12/26 05:05:50;;;;;;;9.32;2.17;;;;;;;9.39;100.00;100836.56;5036838;28;20022;-57
2023/12/26 05:08:15;;;;;;;7.07;1.70;;;;;;;9.37;100.00;100848.22;5041794;28;20120;-58
2023/12/26 05:10:41;;;;;;;9.90;2.10;;;;;;;9.34;100.00;100848.44;5038512;28;20030;-58
2023/12/26 05:13:06;;;;;;;9.57;2.30;;;;;;;9.33;100.00;100862.66;5039671;28;20029;-58
2023/12/26 05:15:31;;;;;;;9.77;2.40;;;;;;;9.30;100.00;100850.47;5040905;28;20120;-56
2023/12/26 05:17:57;;;;;;;9.18;2.22;;;;;;;9.26;100.00;100854.31;5032031;28;20065;-57
2023/12/26 05:20:22;;;;;;;10.98;2.60;;;;;;;9.28;100.00;100859.50;5038542;28;20057;-57
2023/12/26 05:22:47;;;;;;;9.52;2.10;;;;;;;9.24;100.00;100861.50;5036063;28;20026;-57
2023/12/26 05:25:13;;;;;;;9.32;2.30;;;;;;;9.19;100.00;100853.03;5034082;28;20450;-56
2023/12/26 05:27:38;;;;;;;9.38;2.05;;;;;;;9.15;100.00;100863.00;5033945;28;20033;-57
2023/12/26 05:30:05;;;;;;;11.13;1.98;;;;;;;9.13;100.00;100882.63;5034451;28;20032;-57
2023/12/26 05:32:30;;;;;;;8.25;2.45;;;;;;;9.12;100.00;100875.63;5038841;28;20029;-56
2023/12/26 05:34:55;;;;;;;10.73;2.33;;;;;;;9.08;100.00;100877.66;5035704;28;20033;-53
2023/12/26 05:37:22;;;;;;;9.13;1.65;;;;;;;9.07;100.00;100905.06;5035446;28;20132;-57
2023/12/26 05:39:47;;;;;;;9.82;2.35;;;;;;;9.05;100.00;100896.41;5018496;28;20029;-57
2023/12/26 05:42:13;;;;;;;7.70;1.85;;;;;;;9.03;100.00;100893.00;5037862;28;20073;-57
2023/12/26 05:44:39;;;;;;;13.07;2.45;;;;;;;9.01;100.00;100905.50;5020260;28;20052;-56
2023/12/26 05:47:05;;;;;;;8.73;2.10;;;;;;;8.99;100.00;100899.47;5022215;28;20037;-56
2023/12/26 05:49:31;;;;;;;8.52;2.20;;;;;;;8.94;100.00;100918.31;5037128;28;20040;-57
2023/12/26 05:51:56;;;;;;;7.95;1.80;;;;;;;8.91;100.00;100929.16;5024112;28;20025;-54
2023/12/26 05:54:21;;;;;;;8.35;2.28;;;;;;;8.89;100.00;100938.97;5039064;28;20017;-55
2023/12/26 05:56:47;;;;;;;11.13;1.83;;;;;;;8.84;100.00;100949.03;5040298;28;20483;-56
2023/12/26 05:59:12;;;;;;;12.98;2.13;;;;;;;8.81;100.00;100957.19;5017510;28;20056;-56
2023/12/26 06:01:37;;;;;;;9.27;1.95;;;;;;;8.78;100.00;100957.41;5038911;28;20033;-57
2023/12/26 06:04:03;;;;;;;7.82;2.08;;;;;;;8.75;100.00;100960.25;5034968;28;20470;-56
2023/12/26 06:06:28;;;;;;;7.60;1.98;;;;;;;8.72;100.00;100961.31;5032801;28;20029;-56
2023/12/26 06:08:53;;;;;;;8.30;1.67;;;;;;;8.67;100.00;100964.25;5034072;28;20110;-57
2023/12/26 06:11:19;;;;;;;7.03;1.98;;;;;;;8.62;100.00;100966.38;5036961;28;20029;-56
2023/12/26 06:13:44;;;;;;;9.27;2.00;;;;;;;8.57;100.00;100955.22;5038521;28;20017;-57
2023/12/26 06:16:10;;;;;;;9.30;1.92;;;;;;;8.54;100.00;100973.97;5035066;28;20537;-56
2023/12/26 06:18:35;;;;;;;7.32;1.98;;;;;;;8.48;100.00;100974.38;5039807;28;20016;-56
2023/12/26 06:21:00;;;;;;;8.88;2.17;;;;;;;8.44;100.00;100979.03;5035764;28;20409;-56
2023/12/26 06:23:31;;;;;;;7.13;1.75;;;;;;;8.40;100.00;100982.78;5033660;28;20576;-58
2023/12/26 06:25:56;;;;;;;9.98;2.30;;;;;;;8.35;100.00;101000.78;5037310;28;20030;-57
2023/12/26 06:28:21;;;;;;;8.77;2.28;;;;;;;8.31;100.00;101017.78;5034226;28;20530;-55
2023/12/26 06:30:47;;;;;;;9.32;1.80;;;;;;;8.27;100.00;101022.41;5034773;28;20391;-54
2023/12/26 06:33:12;;;;;;;11.50;2.30;;;;;;;8.25;100.00;101023.47;5036974;28;20082;-55
2023/12/26 06:35:38;;;;;;;9.02;1.73;;;;;;;8.21;100.00;101035.19;5036267;28;20032;-56
2023/12/26 06:38:11;;;;;;;7.35;2.00;;;;;;;8.19;100.00;101032.66;5038756;28;20438;-58
2023/12/26 06:40:37;;;;;;;9.13;2.28;;;;;;;8.14;100.00;101030.31;5040742;28;20026;-55
2023/12/26 06:43:02;;;;;;;9.77;2.30;;;;;;;8.13;100.00;101031.25;5036649;28;20029;-56
2023/12/26 06:45:28;;;;;;;10.13;2.13;;;;;;;8.11;100.00;101019.91;5038796;28;20083;-56
2023/12/26 06:47:53;;;;;;;7.60;1.63;;;;;;;8.10;100.00;101026.16;5037127;28;20048;-55
2023/12/26 06:50:19;;;;;;;8.13;2.70;;;;;;;8.10;100.00;101022.66;5020761;28;20490;-56
2023/12/26 06:52:44;;;;;;;9.85;2.17;;;;;;;8.10;100.00;101030.59;5034892;28;20052;-55
2023/12/26 06:55:09;;;;;;;11.85;2.53;;;;;;;8.06;100.00;101022.00;5035491;28;20037;-55
2023/12/26 06:57:35;;;;;;;10.45;1.98;;;;;;;8.04;100.00;101029.16;5035795;28;20045;-55
2023/12/26 07:00:00;;;;;;;8.60;2.00;;;;;;;8.04;100.00;101030.97;5035109;28;20471;-57
2023/12/26 07:02:25;;;;;;;5.53;1.73;;;;;;;8.01;100.00;101039.09;5032165;28;20433;-56
2023/12/26 07:04:51;;;;;;;8.93;1.80;;;;;;;8.00;100.00;101035.63;5034006;28;20039;-57
2023/12/26 07:07:17;;;;;;;10.75;2.35;;;;;;;7.97;100.00;101041.94;5039842;28;20025;-54
2023/12/26 07:09:42;;;;;;;13.50;1.95;;;;;;;7.99;100.00;101052.41;5039372;28;20083;-55
2023/12/26 07:12:08;;;;;;;7.32;1.92;;;;;;;7.99;100.00;101064.81;5037483;28;20382;-56
2023/12/26 07:14:33;;;;;;;12.73;2.00;;;;;;;7.96;100.00;101071.16;5032409;28;20367;-55
2023/12/26 07:16:59;;;;;;;9.13;2.25;;;;;;;7.94;100.00;101084.47;5038166;28;20013;-57
2023/12/26 07:19:24;;;;;;;7.85;2.38;;;;;;;7.94;100.00;101094.19;5038137;28;20044;-56
2023/12/26 07:21:51;;;;;;;9.38;2.63;;;;;;;7.92;100.00;101093.44;5022900;28;20026;-60
2023/12/26 07:24:16;;;;;;;12.25;2.35;;;;;;;7.93;100.00;101103.06;5035244;28;20041;-57
2023/12/26 07:26:41;;;;;;;10.60;2.70;;;;;;;7.93;100.00;101117.13;5030083;28;20374;-57
2023/12/26 07:29:07;;;;;;;6.10;1.98;;;;;;;7.92;100.00;101123.38;5028034;28;20382;-57
2023/12/26 07:31:32;;;;;;;13.48;2.17;;;;;;;7.93;100.00;101129.53;5029458;28;20363;-57
2023/12/26 07:34:00;;;;;;;11.95;2.63;;;;;;;7.92;100.00;101126.00;5032136;28;20363;-54
2023/12/26 07:36:25;;;;;;;10.50;2.22;;;;;;;7.92;100.00;101118.06;5036777;28;20493;-57
2023/12/26 07:38:51;;;;;;;14.93;2.72;;;;;;;7.90;100.00;101117.31;5031697;28;20122;-57
2023/12/26 07:41:16;;;;;;;9.60;2.42;;;;;;;7.88;100.00;101121.03;5029967;28;20087;-58
2023/12/26 07:43:41;;;;;;;9.23;2.05;;;;;;;7.83;100.00;101126.59;5038242;28;20078;-58
2023/12/26 07:46:07;;;;;;;11.27;2.88;;;;;;;7.80;100.00;101132.06;5034851;28;20072;-57
2023/12/26 07:48:32;;;;;;;13.65;2.72;;;;;;;7.75;100.00;101139.41;5034973;28;20022;-58
2023/12/26 07:50:57;;;;;;;10.50;2.50;;;;;;;7.70;100.00;101146.78;5040179;28;20654;-58
2023/12/26 07:53:23;;;;;;;6.75;2.28;;;;;;;7.65;100.00;101151.50;5040927;28;20025;-57
2023/12/26 07:55:49;;;;;;;8.18;2.10;;;;;;;7.60;100.00;101149.94;5039108;28;20074;-57
2023/12/26 07:58:14;;;;;;;10.35;2.42;;;;;;;7.56;100.00;101163.44;5036627;28;20036;-58
2023/12/26 08:00:39;;;;;;;13.40;2.53;;;;;;;7.52;100.00;101168.06;5033806;28;20013;-58
2023/12/26 08:03:05;;;;;;;14.15;2.40;;;;;;;7.46;100.00;101175.47;5016952;28;20083;-58
2023/12/26 08:05:30;;;;;;;9.35;1.73;;;;;;;7.43;100.00;101184.47;5042947;28;20029;-58
2023/12/26 08:07:55;;;;;;;10.27;2.25;;;;;;;7.40;100.00;101187.28;5036582;28;20029;-58
2023/12/26 08:10:24;;;;;;;12.60;2.30;;;;;;;7.37;100.00;101187.44;5034556;28;20040;-58
2023/12/26 08:12:49;;;;;;;16.33;2.40;;;;;;;7.36;100.00;101188.38;5032336;28;20044;-58
2023/12/26 08:15:15;;;;;;;8.13;2.45;;;;;;;7.32;100.00;101187.72;5038636;28;20052;-59
2023/12/26 08:17:40;;;;;;;13.77;2.85;;;;;;;7.28;100.00;101178.28;5033611;28;20049;-58
2023/12/26 08:20:06;;;;;;;12.80;2.28;;;;;;;7.24;100.00;101195.22;5037419;28;20540;-58
2023/12/26 08:22:31;;;;;;;10.52;2.50;;;;;;;7.21;100.00;101190.97;5036670;28;20481;-57
2023/12/26 08:24:57;;;;;;;12.70;3.13;;;;;;;7.22;100.00;101191.81;5040848;28;20017;-57
2023/12/26 08:27:23;;;;;;;9.55;2.47;;;;;;;7.19;100.00;101198.16;5038986;28;20121;-57
2023/12/26 08:29:48;;;;;;;8.93;2.58;;;;;;;7.17;100.00;101194.72;5031787;28;20115;-59
2023/12/26 08:32:14;;;;;;;10.98;2.53;;;;;;;7.16;100.00;101208.00;5031935;28;20029;-57
2023/12/26 08:34:41;;;;;;;9.55;2.42;;;;;;;7.15;100.00;101215.09;5035984;28;20199;-58
2023/12/26 08:37:06;;;;;;;13.70;2.63;;;;;;;7.15;100.00;101217.72;5031330;28;20029;-58
2023/12/26 08:39:32;;;;;;;10.80;2.50;;;;;;;7.14;100.00;101226.59;5037634;28;20384;-58
2023/12/26 08:41:57;;;;;;;11.10;2.55;;;;;;;7.12;100.00;101228.47;5034262;28;20039;-58
2023/12/26 08:44:22;;;;;;;9.40;2.40;;;;;;;7.12;100.00;101232.91;5036779;28;20045;-57
2023/12/26 08:46:50;;;;;;;14.52;2.83;;;;;;;7.12;100.00;101243.47;5036179;28;20032;-58
2023/12/26 08:49:15;;;;;;;10.93;2.53;;;;;;;7.11;100.00;101245.28;5038611;28;20032;-57
2023/12/26 08:51:41;;;;;;;13.63;4.00;;;;;;;7.13;100.00;101261.03;5038006;28;20377;-58
2023/12/26 08:54:06;;;;;;;8.55;2.55;;;;;;;7.12;100.00;101269.88;5035211;28;20383;-56
2023/12/26 08:56:32;;;;;;;14.15;2.72;;;;;;;7.11;100.00;101269.03;5032692;28;20029;-58
2023/12/26 08:58:57;;;;;;;17.70;2.75;;;;;;;7.11;100.00;101263.75;5038301;28;20021;-57
2023/12/26 09:01:22;;;;;;;10.73;2.60;;;;;;;7.12;100.00;101264.59;5039863;28;20040;-57
2023/12/26 09:03:48;;;;;;;11.20;2.40;;;;;;;7.10;100.00;101262.03;5037230;28;20021;-58
2023/12/26 09:06:13;;;;;;;15.52;2.90;;;;;;;7.14;100.00;101265.38;5034800;28;20041;-58
2023/12/26 09:08:39;;;;;;;12.52;2.65;;;;;;;7.16;100.00;101269.63;5039514;28;20285;-58
2023/12/26 09:11:04;;;;;;;10.73;2.90;;;;;;;7.23;100.00;101278.91;5036267;28;20026;-58
2023/12/26 09:13:30;;;;;;;13.93;2.72;;;;;;;7.31;100.00;101290.84;5040514;28;20038;-58
2023/12/26 09:15:57;;;;;;;16.35;2.60;;;;;;;7.37;100.00;101294.00;5037055;28;20097;-58
2023/12/26 09:18:23;;;;;;;13.93;2.70;;;;;;;7.47;100.00;101296.13;5036106;28;20060;-58
2023/12/26 09:20:48;;;;;;;13.55;3.45;;;;;;;7.54;100.00;101303.66;5040159;28;20481;-58
2023/12/26 09:23:14;;;;;;;16.27;3.47;;;;;;;7.62;100.00;101308.47;5034524;28;20339;-57
2023/12/26 09:25:39;;;;;;;9.80;2.45;;;;;;;7.64;100.00;101311.88;5033048;28;20390;-57
2023/12/26 09:28:07;;;;;;;13.70;3.72;;;;;;;7.64;100.00;101303.94;5038141;28;20056;-58
2023/12/26 09:30:33;;;;;;;8.82;2.60;;;;;;;7.66;100.00;101315.31;5033905;28;20105;-57
2023/12/26 09:32:58;;;;;;;15.63;3.03;;;;;;;7.65;100.00;101318.03;5034654;28;20449;-58
2023/12/26 09:35:23;;;;;;;13.93;2.97;;;;;;;7.66;100.00;101330.31;5039726;28;20477;-57
2023/12/26 09:37:49;;;;;;;9.50;2.47;;;;;;;7.68;100.00;101329.28;5037451;28;20367;-57
2023/12/26 09:40:15;;;;;;;14.65;3.08;;;;;;;7.70;100.00;101327.41;5038390;28;20646;-57
2023/12/26 09:42:41;;;;;;;15.40;2.45;;;;;;;7.72;100.00;101337.91;5035393;28;20043;-57
2023/12/26 09:45:11;;;;;;;9.48;2.50;;;;;;;7.70;100.00;101351.19;5043550;28;20113;-58
2023/12/26 09:47:41;;;;;;;11.00;2.92;;;;;;;7.70;100.00;101371.50;5037095;28;20067;-57
2023/12/26 09:50:07;;;;;;;9.95;2.72;;;;;;;7.67;100.00;101366.38;5038509;28;20550;-58
2023/12/26 09:52:35;;;;;;;16.67;3.25;;;;;;;7.64;100.00;101374.47;5031554;28;20037;-57
2023/12/26 09:55:01;;;;;;;13.00;3.00;;;;;;;7.62;100.00;101382.50;5029276;28;20486;-58
2023/12/26 09:57:27;;;;;;;12.88;2.55;;;;;;;7.59;100.00;101378.25;5030843;28;20029;-58
2023/12/26 09:59:54;;;;;;;15.95;3.13;;;;;;;7.56;100.00;101385.47;5039827;28;20049;-58
2023/12/26 10:02:19;;;;;;;18.25;3.22;;;;;;;7.54;100.00;101392.66;5033391;28;20026;-58
2023/12/26 10:04:45;;;;;;;12.95;3.22;;;;;;;7.53;100.00;101401.53;5039967;28;20022;-58
2023/12/26 10:07:11;;;;;;;19.90;3.33;;;;;;;7.52;100.00;101408.59;5033554;28;20034;-58
2023/12/26 10:09:36;;;;;;;19.38;3.17;;;;;;;7.53;100.00;101404.16;5037000;28;20053;-58
2023/12/26 10:12:02;;;;;;;14.65;3.15;;;;;;;7.56;100.00;101410.13;5036073;28;20040;-58
2023/12/26 10:14:31;;;;;;;11.43;2.80;;;;;;;7.63;100.00;101407.13;5034478;28;20405;-58
2023/12/26 10:16:57;;;;;;;14.10;3.47;;;;;;;7.70;100.00;101403.25;5034275;28;20041;-58
2023/12/26 10:19:23;;;;;;;13.50;2.80;;;;;;;7.77;100.00;101407.22;5034833;28;20033;-57
2023/12/26 10:21:51;;;;;;;16.83;3.65;;;;;;;7.85;100.00;101410.31;5038679;28;20032;-57
2023/12/26 10:24:18;;;;;;;13.35;3.10;;;;;;;7.91;100.00;101411.75;5032922;28;20390;-58
2023/12/26 10:26:43;;;;;;;14.48;2.97;;;;;;;7.99;100.00;101424.53;5040220;28;20025;-58
2023/12/26 10:29:16;;;;;;;14.07;2.95;;;;;;;8.07;100.00;101424.97;5031681;28;20501;-58
2023/12/26 10:31:42;;;;;;;16.00;3.10;;;;;;;8.15;100.00;101435.97;5033351;28;20028;-57
2023/12/26 10:34:16;;;;;;;10.73;2.55;;;;;;;8.21;100.00;101432.09;5030940;28;20025;-57
2023/12/26 10:36:43;;;;;;;12.38;3.20;;;;;;;8.25;100.00;101445.09;5034435;28;20052;-58
2023/12/26 10:39:10;;;;;;;14.65;3.25;;;;;;;8.31;100.00;101434.16;5033888;28;20030;-57
2023/12/26 10:41:38;;;;;;;13.07;3.53;;;;;;;8.36;100.00;101436.53;5039347;28;20043;-57
2023/12/26 10:44:05;;;;;;;15.25;3.35;;;;;;;8.42;100.00;101430.88;5030564;28;20491;-58
2023/12/26 10:46:32;;;;;;;11.40;2.60;;;;;;;8.47;100.00;101425.34;5040374;28;20394;-58
2023/12/26 10:49:04;;;;;;;10.43;2.50;;;;;;;8.50;100.00;101423.38;5035506;28;20129;-58
2023/12/26 10:51:30;;;;;;;16.40;3.35;;;;;;;8.57;100.00;101429.16;5039457;28;20025;-58
2023/12/26 10:54:04;;;;;;;12.30;3.10;;;;;;;8.63;100.00;101422.66;5036308;28;20040;-58
2023/12/26 10:56:31;;;;;;;17.10;3.30;;;;;;;8.68;100.00;101412.66;5032633;28;20030;-58
2023/12/26 10:58:58;;;;;;;10.50;2.97;;;;;;;8.73;100.00;101425.59;5033210;28;20111;-58
2023/12/26 13:52:57;;;;;;;15.55;3.45;;;;;;;8.86;98.26;101604.06;5035742;28;20036;-56
2023/12/26 13:55:22;;;;;;;15.07;3.30;;;;;;;8.84;96.87;101617.41;5039410;28;20398;-57
2023/12/26 13:57:47;;;;;;;13.07;2.88;;;;;;;8.80;95.98;101610.56;5032275;28;20076;-57
2023/12/26 14:00:13;;;;;;;17.02;3.03;;;;;;;8.78;96.41;101619.56;5034095;28;20112;-58
2023/12/26 14:02:38;;;;;;;16.60;2.75;;;;;;;8.77;96.66;101616.03;5031192;28;20022;-57
2023/12/26 14:05:03;;;;;;;11.48;2.92;;;;;;;8.75;97.49;101611.78;5035732;28;20040;-54
2023/12/26 14:07:31;;;;;;;12.95;2.83;;;;;;;8.73;97.12;101621.59;5032177;28;20044;-58